Time;durP1;ratioP1;P1;durP2;ratioP2;P2;SDS_P1;SDS_P2;PMS_P1;PMS_P2;Temp;Humidity;BMP_temperature;BMP_pressure;BME280_temperature;BME280_humidity;BME280_pressure;Samples;Min_cycle;Max_cycle;Signal;HPM_P1;HPM_P2
2021/11/13 00:00:57;;;;;;;5.13;4.47;;;;;;;20.55;56.92;97463.41;4954947;28;20223;-63
2021/11/13 00:03:24;;;;;;;5.50;4.53;;;;;;;20.56;56.67;97474.47;4969685;28;20235;-61
2021/11/13 00:05:51;;;;;;;4.80;4.30;;;;;;;20.55;56.95;97473.63;4970022;28;20657;-62
2021/11/13 00:08:18;;;;;;;5.07;4.27;;;;;;;20.48;57.03;97470.78;4938837;28;20627;-61
2021/11/13 00:10:46;;;;;;;5.00;4.23;;;;;;;20.56;56.75;97484.69;4938664;28;20620;-62
2021/11/13 00:13:13;;;;;;;5.03;4.13;;;;;;;20.47;56.97;97477.59;4939356;28;20245;-62
2021/11/13 00:15:39;;;;;;;5.40;4.20;;;;;;;20.56;56.87;97489.78;4942058;28;20921;-61
2021/11/13 00:18:06;;;;;;;4.97;4.40;;;;;;;20.47;57.09;97469.94;4963582;28;20728;-62
2021/11/13 00:20:33;;;;;;;5.00;4.20;;;;;;;20.55;56.90;97482.97;4942616;28;20211;-61
2021/11/13 00:22:59;;;;;;;5.73;4.80;;;;;;;20.55;57.09;97478.72;4957719;28;20223;-61
2021/11/13 00:25:26;;;;;;;4.63;4.23;;;;;;;20.55;57.34;97468.53;4951496;28;20208;-62
2021/11/13 00:27:53;;;;;;;5.00;3.77;;;;;;;20.55;57.00;97472.75;4941830;28;20215;-62
2021/11/13 00:30:20;;;;;;;5.00;3.80;;;;;;;20.47;57.08;97462.28;4942422;28;20204;-61
2021/11/13 00:32:46;;;;;;;4.33;3.93;;;;;;;20.50;57.17;97471.72;4942396;28;20204;-62
2021/11/13 00:35:13;;;;;;;4.80;4.30;;;;;;;20.54;56.98;97482.09;4942124;28;20290;-62
2021/11/13 00:37:40;;;;;;;4.43;4.03;;;;;;;20.47;57.00;97461.41;4942710;28;20673;-61
2021/11/13 00:40:07;;;;;;;4.87;4.03;;;;;;;20.56;57.07;97477.03;4942148;28;20200;-61
2021/11/13 00:42:34;;;;;;;4.60;4.07;;;;;;;20.55;57.16;97462.53;4968789;28;20204;-61
2021/11/13 00:45:01;;;;;;;4.83;4.33;;;;;;;20.55;56.79;97457.44;4957191;28;20227;-61
2021/11/13 00:47:28;;;;;;;4.77;4.03;;;;;;;20.55;57.10;97454.88;4957964;28;20211;-61
2021/11/13 00:49:54;;;;;;;4.57;4.10;;;;;;;20.55;56.86;97452.31;4957498;28;20279;-62
2021/11/13 00:52:21;;;;;;;4.90;4.30;;;;;;;20.55;57.07;97454.88;4941863;28;20216;-62
2021/11/13 00:54:48;;;;;;;5.13;3.90;;;;;;;20.54;56.98;97451.44;4957378;28;20258;-62
2021/11/13 00:57:14;;;;;;;6.07;4.20;;;;;;;20.55;57.11;97458.31;4956780;28;20204;-62
2021/11/13 00:59:41;;;;;;;5.07;4.10;;;;;;;20.09;57.00;97378.47;4973117;28;20258;-61
2021/11/13 01:02:08;;;;;;;5.00;4.13;;;;;;;20.35;57.03;97426.16;4965414;28;20212;-61
2021/11/13 01:04:35;;;;;;;5.17;4.43;;;;;;;20.55;56.85;97458.31;4941734;28;20556;-61
2021/11/13 01:07:02;;;;;;;5.17;3.97;;;;;;;20.55;57.25;97458.31;4956999;28;20827;-61
2021/11/13 01:09:29;;;;;;;4.73;4.23;;;;;;;20.55;56.93;97454.88;4972881;28;20215;-61
2021/11/13 01:11:57;;;;;;;5.63;3.93;;;;;;;20.55;57.05;97445.53;4941646;28;20636;-62
2021/11/13 01:14:25;;;;;;;4.37;3.73;;;;;;;20.56;57.03;97448.94;4959585;28;20693;-62
2021/11/13 01:16:51;;;;;;;4.13;3.63;;;;;;;20.50;57.07;97441.09;4944697;28;20641;-62
2021/11/13 01:19:18;;;;;;;4.50;3.80;;;;;;;20.55;56.93;97460.84;4956343;28;20200;-62
2021/11/13 01:21:45;;;;;;;4.57;3.90;;;;;;;20.52;56.96;97450.50;4955288;28;20254;-61
2021/11/13 01:24:12;;;;;;;4.63;3.73;;;;;;;20.52;56.96;97447.97;4971539;28;20274;-61
2021/11/13 01:26:38;;;;;;;4.67;4.07;;;;;;;20.47;57.12;97438.44;4961359;28;20251;-61
2021/11/13 01:29:05;;;;;;;4.70;3.93;;;;;;;20.55;57.07;97455.75;4946754;28;20262;-61
2021/11/13 01:31:31;;;;;;;5.03;4.23;;;;;;;20.55;56.91;97458.31;4957322;28;20290;-59
2021/11/13 01:33:59;;;;;;;4.97;4.03;;;;;;;20.55;57.26;97462.53;4941027;28;20623;-62
2021/11/13 01:36:25;;;;;;;3.70;3.40;;;;;;;20.55;56.95;97457.44;4941019;28;20266;-61
2021/11/13 01:38:54;;;;;;;4.23;3.60;;;;;;;20.55;57.09;97462.53;4941124;28;20262;-62
2021/11/13 01:41:21;;;;;;;4.13;3.70;;;;;;;20.54;57.05;97451.44;4941827;28;20328;-62
2021/11/13 01:43:48;;;;;;;3.80;3.40;;;;;;;20.55;57.19;97448.09;4957000;28;20771;-61
2021/11/13 01:46:15;;;;;;;3.87;3.43;;;;;;;20.54;57.25;97450.59;4937964;28;20207;-61
2021/11/13 01:48:41;;;;;;;3.93;3.50;;;;;;;20.55;57.21;97450.66;4956632;28;20204;-62
2021/11/13 01:51:22;;;;;;;4.27;3.87;;;;;;;20.56;57.29;97446.38;4954652;28;20685;-61
2021/11/13 01:53:50;;;;;;;4.33;3.90;;;;;;;20.54;56.96;97448.88;4969472;28;20246;-61
2021/11/13 01:56:19;;;;;;;4.83;3.40;;;;;;;20.55;56.92;97448.09;4971879;28;20278;-61
2021/11/13 01:58:47;;;;;;;4.03;3.60;;;;;;;20.55;56.93;97437.88;4955704;28;20255;-61
2021/11/13 02:01:13;;;;;;;4.50;3.57;;;;;;;20.55;56.73;97448.09;4937501;28;20207;-61
2021/11/13 02:03:40;;;;;;;4.53;3.60;;;;;;;20.50;57.08;97436.84;4954323;28;20274;-60
2021/11/13 02:06:07;;;;;;;3.97;3.60;;;;;;;20.55;57.47;97437.88;4969372;28;20615;-62
2021/11/13 02:08:33;;;;;;;3.77;3.40;;;;;;;20.44;57.29;97421.34;4954355;28;20204;-62
2021/11/13 02:11:00;;;;;;;4.13;3.77;;;;;;;20.56;57.17;97443.84;4940239;28;20207;-62
2021/11/13 02:13:27;;;;;;;4.00;3.60;;;;;;;20.55;57.35;97445.53;4956217;28;20641;-61
2021/11/13 02:15:53;;;;;;;3.70;3.40;;;;;;;20.56;57.24;97447.25;4938463;28;20281;-61
2021/11/13 02:18:20;;;;;;;4.00;3.70;;;;;;;20.55;57.20;97437.88;4940196;28;20215;-62
2021/11/13 02:20:47;;;;;;;4.63;3.67;;;;;;;20.55;57.17;97453.19;4955376;28;20281;-61
2021/11/13 02:23:23;;;;;;;3.70;3.40;;;;;;;20.56;57.16;97454.03;4940462;28;20231;-62
2021/11/13 02:25:51;;;;;;;3.80;3.40;;;;;;;20.56;57.37;97466.81;4937994;28;20235;-61
2021/11/13 02:28:19;;;;;;;3.97;3.43;;;;;;;20.56;57.25;97459.16;4955873;28;20211;-60
2021/11/13 02:30:46;;;;;;;3.80;3.40;;;;;;;20.48;57.19;97446.16;4954789;28;20306;-62
2021/11/13 02:33:13;;;;;;;3.50;3.20;;;;;;;20.48;57.36;97451.25;4956020;28;20243;-62
2021/11/13 02:35:40;;;;;;;3.97;3.40;;;;;;;20.57;57.29;97460.91;4970897;28;20246;-62
2021/11/13 02:38:13;;;;;;;3.57;3.27;;;;;;;20.56;57.32;97452.38;4939547;28;20207;-62
2021/11/13 02:40:41;;;;;;;4.27;3.57;;;;;;;20.57;57.29;97466.00;4955856;28;20199;-62
2021/11/13 02:43:08;;;;;;;3.57;3.23;;;;;;;20.56;57.27;97457.47;4939398;28;20263;-61
2021/11/13 02:45:35;;;;;;;3.90;3.50;;;;;;;20.56;57.44;97459.16;4939361;28;20207;-62
2021/11/13 02:48:02;;;;;;;3.37;3.07;;;;;;;20.56;57.21;97462.59;4955696;28;20212;-62
2021/11/13 02:50:29;;;;;;;3.63;3.33;;;;;;;20.56;57.12;97459.16;4940369;28;20211;-62
2021/11/13 02:52:57;;;;;;;4.63;3.60;;;;;;;20.56;57.04;97459.16;4938582;28;20211;-61
2021/11/13 02:55:24;;;;;;;3.73;3.40;;;;;;;20.57;57.21;97458.34;4954954;28;20282;-62
2021/11/13 02:57:50;;;;;;;4.00;3.50;;;;;;;20.56;57.00;97462.59;4955338;28;20204;-62
2021/11/13 03:00:19;;;;;;;3.73;3.33;;;;;;;20.56;57.20;97449.81;4955326;28;20212;-62
2021/11/13 03:02:45;;;;;;;3.60;3.30;;;;;;;20.56;57.13;97457.47;4939571;28;20215;-62
2021/11/13 03:05:24;;;;;;;3.60;3.30;;;;;;;20.56;56.98;97452.38;4954397;28;20211;-62
2021/11/13 03:07:52;;;;;;;4.20;3.30;;;;;;;20.57;57.17;97453.25;4969858;28;20204;-61
2021/11/13 03:10:18;;;;;;;4.23;3.40;;;;;;;20.56;57.27;97451.50;4939536;28;20232;-61
2021/11/13 03:12:45;;;;;;;3.37;2.93;;;;;;;20.56;57.24;97452.38;4970013;28;20246;-62
2021/11/13 03:15:15;;;;;;;3.70;3.30;;;;;;;20.50;57.24;97446.19;4938696;28;20207;-62
2021/11/13 03:17:42;;;;;;;3.43;3.00;;;;;;;20.56;57.03;97456.59;4938106;28;20204;-60
2021/11/13 03:20:14;;;;;;;3.53;3.17;;;;;;;20.54;57.15;97440.38;4943429;28;20657;-62
2021/11/13 03:22:41;;;;;;;3.60;3.30;;;;;;;20.56;57.16;97434.50;4954566;28;20203;-63
2021/11/13 03:25:13;;;;;;;3.83;3.43;;;;;;;20.53;57.10;97441.19;4967173;28;20240;-61
2021/11/13 03:27:42;;;;;;;3.43;3.07;;;;;;;20.57;57.47;97448.16;4954846;28;20311;-62
2021/11/13 03:30:09;;;;;;;3.93;3.53;;;;;;;20.57;56.99;97450.69;4955537;28;20216;-62
2021/11/13 03:32:35;;;;;;;3.50;3.10;;;;;;;20.57;57.06;97446.44;4938704;28;20470;-63
2021/11/13 03:35:03;;;;;;;3.77;3.40;;;;;;;20.57;57.03;97440.47;4938851;28;20235;-62
2021/11/13 03:37:30;;;;;;;3.90;3.50;;;;;;;20.56;57.16;97442.16;4938866;28;20617;-62
2021/11/13 03:39:57;;;;;;;4.20;3.60;;;;;;;20.56;57.41;97431.94;4954416;28;20235;-62
2021/11/13 03:42:27;;;;;;;3.50;3.20;;;;;;;20.55;57.12;97425.13;4938698;28;20227;-62
2021/11/13 03:44:54;;;;;;;3.67;3.37;;;;;;;20.57;56.89;97431.13;4937694;28;20231;-62
2021/11/13 03:47:20;;;;;;;3.53;3.23;;;;;;;20.50;56.95;97431.75;4962818;28;20204;-62
2021/11/13 03:49:48;;;;;;;3.70;3.40;;;;;;;20.58;56.89;97439.66;4936961;28;20208;-61
2021/11/13 03:52:14;;;;;;;4.13;3.23;;;;;;;19.99;57.21;97338.19;4939152;28;20203;-62
2021/11/13 03:54:41;;;;;;;3.47;3.17;;;;;;;20.57;57.24;97436.22;4972270;23;20250;-64
2021/11/13 03:57:08;;;;;;;3.37;3.07;;;;;;;20.49;57.09;97416.38;4951539;28;20227;-65
2021/11/13 03:59:35;;;;;;;3.43;3.03;;;;;;;20.49;57.04;97424.03;4960341;28;20212;-66
2021/11/13 04:02:02;;;;;;;3.50;3.20;;;;;;;20.26;57.22;97391.81;4971808;28;20203;-65
2021/11/13 04:04:29;;;;;;;3.60;3.30;;;;;;;20.53;57.20;97428.41;4972362;28;20285;-65
2021/11/13 04:06:55;;;;;;;3.80;3.23;;;;;;;20.57;56.93;97451.53;4957840;28;20620;-64
2021/11/13 04:09:22;;;;;;;3.67;3.37;;;;;;;20.43;57.15;97426.41;4940746;28;20232;-65
2021/11/13 04:11:48;;;;;;;3.30;3.00;;;;;;;20.58;57.08;97455.84;4954525;28;20196;-65
2021/11/13 04:14:15;;;;;;;3.20;2.90;;;;;;;20.31;57.24;97408.16;4954817;28;20648;-66
2021/11/13 04:16:42;;;;;;;3.30;3.10;;;;;;;20.58;57.36;97462.63;4956163;28;20231;-66
2021/11/13 04:19:10;;;;;;;3.43;3.13;;;;;;;20.52;56.98;97452.22;4969098;28;20574;-63
2021/11/13 04:21:37;;;;;;;3.37;3.07;;;;;;;20.48;57.38;97451.25;4972158;28;20218;-63
2021/11/13 04:24:04;;;;;;;3.40;3.10;;;;;;;20.54;56.89;97463.38;4960918;28;20238;-64
2021/11/13 04:26:32;;;;;;;3.37;3.07;;;;;;;20.58;57.25;97463.50;4940582;28;20616;-64
2021/11/13 04:28:58;;;;;;;3.50;3.20;;;;;;;20.59;57.08;97469.47;4972465;28;20257;-64
2021/11/13 04:31:25;;;;;;;3.50;3.20;;;;;;;20.58;56.96;97467.75;4953760;28;20212;-65
2021/11/13 04:33:56;;;;;;;3.63;3.33;;;;;;;20.58;56.90;97460.97;4968925;28;20239;-64
2021/11/13 04:36:27;;;;;;;3.20;2.93;;;;;;;20.27;57.08;97409.72;4971998;28;20219;-65
2021/11/13 04:38:53;;;;;;;3.20;3.00;;;;;;;20.43;57.18;97432.34;4972864;28;20211;-64
2021/11/13 04:41:20;;;;;;;3.30;3.07;;;;;;;20.58;57.31;97465.19;4956790;28;20234;-65
2021/11/13 04:43:46;;;;;;;3.37;3.07;;;;;;;20.41;57.26;97439.13;4940193;28;20227;-65
2021/11/13 04:46:13;;;;;;;3.37;3.07;;;;;;;20.43;57.23;97445.13;4940173;28;20565;-65
2021/11/13 04:48:40;;;;;;;3.37;3.07;;;;;;;20.52;57.04;97457.34;4956522;28;20277;-64
2021/11/13 04:51:06;;;;;;;3.23;2.93;;;;;;;20.57;57.32;97473.69;4955232;28;20266;-65
2021/11/13 04:53:33;;;;;;;3.00;2.80;;;;;;;19.78;57.10;97342.59;4950651;28;20236;-65
2021/11/13 04:56:00;;;;;;;3.23;2.93;;;;;;;20.52;57.12;97463.28;4970455;28;20246;-65
2021/11/13 04:58:26;;;;;;;3.00;2.70;;;;;;;19.96;57.23;97377.19;4989775;28;20277;-64
2021/11/13 05:00:53;;;;;;;3.17;2.87;;;;;;;20.55;56.95;97477.84;4944201;28;20292;-66
2021/11/13 05:03:20;;;;;;;3.37;3.07;;;;;;;20.49;57.21;97465.75;4959269;28;20764;-63
2021/11/13 05:05:46;;;;;;;3.70;3.10;;;;;;;20.48;57.06;97466.56;4959456;28;20211;-63
2021/11/13 05:08:13;;;;;;;3.27;2.97;;;;;;;20.58;57.07;97488.16;4975992;28;20214;-63
2021/11/13 05:10:40;;;;;;;2.80;2.53;;;;;;;20.31;57.17;97442.16;4975603;28;20211;-63
2021/11/13 05:13:06;;;;;;;2.87;2.60;;;;;;;20.58;57.03;97485.63;4959537;28;20207;-63
2021/11/13 05:15:33;;;;;;;3.47;3.17;;;;;;;20.29;57.12;97435.28;4959382;28;20322;-64
2021/11/13 05:18:00;;;;;;;3.30;3.00;;;;;;;20.58;57.23;97486.50;4958170;28;20645;-63
2021/11/13 05:20:26;;;;;;;3.30;3.00;;;;;;;20.39;57.45;97452.63;4962764;28;20199;-63
2021/11/13 05:22:53;;;;;;;3.37;3.07;;;;;;;20.59;56.98;97487.34;4975364;28;20327;-62
2021/11/13 05:25:20;;;;;;;3.00;2.80;;;;;;;19.67;57.02;97324.38;4955381;28;20219;-64
2021/11/13 05:27:47;;;;;;;3.10;2.90;;;;;;;20.59;56.69;97484.78;4956995;28;20199;-64
2021/11/13 05:30:14;;;;;;;3.00;2.80;;;;;;;20.59;56.97;97479.66;4958351;28;20226;-63
2021/11/13 05:32:41;;;;;;;3.30;3.00;;;;;;;20.53;57.10;97464.16;4965585;28;20289;-64
2021/11/13 05:35:09;;;;;;;3.33;3.03;;;;;;;20.50;56.82;97469.16;4983274;28;20250;-64
2021/11/13 05:37:35;;;;;;;3.20;2.90;;;;;;;20.58;57.17;97481.38;4958904;28;20786;-63
2021/11/13 05:40:04;;;;;;;3.10;2.80;;;;;;;20.28;57.02;97428.47;4958674;28;20233;-64
2021/11/13 05:42:31;;;;;;;3.40;3.10;;;;;;;20.46;57.09;97465.63;4958531;28;20657;-63
2021/11/13 05:44:57;;;;;;;2.87;2.57;;;;;;;19.72;57.04;97327.94;4958174;28;20277;-64
2021/11/13 05:47:27;;;;;;;3.30;3.00;;;;;;;20.48;57.16;97463.13;4955461;28;20558;-63
2021/11/13 05:49:54;;;;;;;3.03;2.83;;;;;;;20.59;57.35;97483.09;4960036;28;20280;-63
2021/11/13 05:52:21;;;;;;;3.60;3.30;;;;;;;20.48;57.06;97450.38;4956977;28;20716;-63
2021/11/13 05:54:48;;;;;;;2.90;2.70;;;;;;;20.54;57.14;97459.09;4957585;28;20235;-64
2021/11/13 05:57:15;;;;;;;3.00;2.80;;;;;;;20.60;56.92;97466.13;4959098;28;20223;-64
2021/11/13 05:59:53;;;;;;;3.47;3.17;;;;;;;19.79;57.19;97329.00;4961711;28;20198;-63
2021/11/13 06:02:19;;;;;;;2.97;2.77;;;;;;;20.59;57.15;97466.91;4973273;28;20270;-63
2021/11/13 06:04:46;;;;;;;2.87;2.67;;;;;;;20.54;57.31;97453.16;4981791;28;20219;-63
2021/11/13 06:07:13;;;;;;;3.23;2.93;;;;;;;20.27;57.02;97421.59;4956397;28;20212;-63
2021/11/13 06:09:40;;;;;;;3.10;2.90;;;;;;;20.56;57.37;97472.78;4942392;28;20203;-61
2021/11/13 06:12:07;;;;;;;3.07;2.77;;;;;;;20.51;57.27;97458.13;4974586;28;20479;-64
2021/11/13 06:14:34;;;;;;;2.80;2.60;;;;;;;20.54;57.03;97458.25;4957910;28;20283;-63
2021/11/13 06:17:00;;;;;;;3.10;2.80;;;;;;;20.46;57.08;97449.47;4942424;28;20266;-64
2021/11/13 06:19:27;;;;;;;3.70;3.00;;;;;;;20.59;56.85;97470.34;4955394;28;20215;-63
2021/11/13 06:21:54;;;;;;;3.50;3.17;;;;;;;20.30;57.07;97407.25;4972362;28;20208;-64
2021/11/13 06:24:20;;;;;;;3.20;2.90;;;;;;;20.49;57.07;97447.03;4953942;28;20231;-64
2021/11/13 06:26:47;;;;;;;3.07;2.80;;;;;;;20.54;57.06;97450.59;4971022;28;20207;-64
2021/11/13 06:29:14;;;;;;;3.30;3.00;;;;;;;20.50;57.04;97448.75;4936534;28;20207;-63
2021/11/13 06:31:40;;;;;;;3.43;3.00;;;;;;;20.56;57.03;97456.59;4973975;28;20207;-62
2021/11/13 06:34:07;;;;;;;3.40;3.10;;;;;;;20.59;57.12;97466.91;4954171;28;20482;-63
2021/11/13 06:36:34;;;;;;;2.83;2.63;;;;;;;19.81;57.37;97340.97;4958156;28;20285;-64
2021/11/13 06:39:00;;;;;;;2.70;2.50;;;;;;;20.52;56.87;97457.34;4941748;28;20486;-64
2021/11/13 06:41:29;;;;;;;3.10;2.90;;;;;;;20.46;57.26;97457.97;4971436;28;20204;-63
2021/11/13 06:43:58;;;;;;;3.23;2.93;;;;;;;20.61;57.30;97475.50;4973309;28;20261;-62
2021/11/13 06:46:25;;;;;;;3.20;2.90;;;;;;;20.46;57.23;97452.03;4957973;28;20207;-63
2021/11/13 06:48:52;;;;;;;2.67;2.47;;;;;;;20.60;57.29;97477.16;4968850;28;20219;-63
2021/11/13 06:51:20;;;;;;;2.90;2.60;;;;;;;20.59;56.97;97475.44;4939652;28;20212;-64
2021/11/13 06:53:47;;;;;;;3.03;2.83;;;;;;;20.56;57.28;97471.91;4955932;28;20294;-63
2021/11/13 06:56:13;;;;;;;3.10;2.80;;;;;;;20.01;57.07;97374.78;4957042;28;20326;-63
2021/11/13 06:58:40;;;;;;;3.13;2.83;;;;;;;20.59;57.34;97475.44;4957848;28;20632;-62
2021/11/13 07:01:07;;;;;;;3.03;2.73;;;;;;;20.46;57.05;97457.97;4955955;28;20215;-63
2021/11/13 07:03:33;;;;;;;3.20;3.00;;;;;;;20.59;57.05;97488.22;4973644;28;20227;-61
2021/11/13 07:06:00;;;;;;;2.87;2.67;;;;;;;20.60;56.99;97484.84;4957170;28;20210;-63
2021/11/13 07:08:27;;;;;;;3.40;3.10;;;;;;;20.40;56.96;97460.34;4953672;28;20251;-63
2021/11/13 07:10:53;;;;;;;3.17;2.93;;;;;;;20.59;56.97;97482.22;4956401;28;20270;-63
2021/11/13 07:13:21;;;;;;;5.37;3.20;;;;;;;20.60;56.80;97489.09;4972636;28;20618;-64
2021/11/13 07:15:48;;;;;;;3.50;3.20;;;;;;;19.75;56.75;97339.94;4954938;28;20285;-64
2021/11/13 07:18:14;;;;;;;3.90;3.10;;;;;;;20.54;57.24;97481.22;4940463;28;20711;-64
2021/11/13 07:20:41;;;;;;;4.33;3.00;;;;;;;20.49;56.92;97467.44;4940168;28;20727;-63
2021/11/13 07:23:08;;;;;;;4.80;3.40;;;;;;;20.57;57.01;97496.66;4968875;28;20245;-63
2021/11/13 07:25:35;;;;;;;3.43;3.00;;;;;;;20.52;56.96;97488.81;4988561;28;20234;-64
2021/11/13 07:28:04;;;;;;;5.37;3.20;;;;;;;20.61;57.16;97514.69;4974099;28;20274;-63
2021/11/13 07:30:40;;;;;;;4.07;3.20;;;;;;;20.54;57.04;97510.16;4990239;28;20191;-64
2021/11/13 07:33:08;;;;;;;3.30;3.00;;;;;;;20.62;57.19;97529.16;4968109;28;20226;-63
2021/11/13 07:35:36;;;;;;;3.27;2.97;;;;;;;20.54;57.03;97525.47;4990142;28;20237;-63
2021/11/13 07:38:03;;;;;;;3.90;3.10;;;;;;;20.55;56.88;97522.13;4973164;28;20640;-63
2021/11/13 07:40:30;;;;;;;3.40;3.10;;;;;;;20.59;57.13;97533.28;4953717;28;20338;-64
2021/11/13 07:42:57;;;;;;;4.83;3.40;;;;;;;20.64;57.35;97547.09;4989471;28;21033;-63
2021/11/13 07:45:24;;;;;;;3.40;2.90;;;;;;;20.63;57.12;97528.34;4969595;28;20286;-63
2021/11/13 07:47:51;;;;;;;3.47;3.17;;;;;;;20.46;57.13;97513.28;4953268;28;20728;-64
2021/11/13 07:50:17;;;;;;;4.27;3.37;;;;;;;20.58;57.10;97535.00;4953964;28;20267;-63
2021/11/13 07:52:44;;;;;;;5.73;2.93;;;;;;;20.65;57.00;97556.47;4953270;28;20211;-64
2021/11/13 07:55:12;;;;;;;4.60;2.90;;;;;;;20.61;56.79;97557.19;4941412;28;20234;-64
2021/11/13 07:57:39;;;;;;;4.87;3.13;;;;;;;20.44;56.88;97520.03;4956635;28;20281;-60
2021/11/13 08:00:07;;;;;;;3.50;3.13;;;;;;;20.65;56.67;97557.34;4956911;28;20207;-63
2021/11/13 08:02:34;;;;;;;3.03;2.83;;;;;;;20.61;56.67;97539.31;4940653;28;20265;-63
2021/11/13 08:05:01;;;;;;;3.70;3.40;;;;;;;20.64;56.99;97541.97;4937839;28;20215;-63
2021/11/13 08:07:27;;;;;;;3.87;3.30;;;;;;;20.52;56.78;97514.34;4972242;28;20257;-62
2021/11/13 08:09:54;;;;;;;3.20;2.90;;;;;;;20.58;56.77;97521.34;4956404;28;20293;-63
2021/11/13 08:12:20;;;;;;;3.53;3.20;;;;;;;20.66;56.89;97538.66;4969823;28;20286;-62
2021/11/13 08:14:47;;;;;;;4.30;3.30;;;;;;;20.57;56.65;97524.75;4988534;28;20250;-63
2021/11/13 08:17:14;;;;;;;3.30;3.00;;;;;;;20.65;56.83;97531.81;4990188;28;20284;-64
2021/11/13 08:19:40;;;;;;;6.20;4.73;;;;;;;20.65;55.64;97531.81;4972761;28;20204;-62
2021/11/13 08:22:07;;;;;;;6.40;5.40;;;;;;;20.65;54.45;97533.50;4982492;28;20628;-63
2021/11/13 08:24:35;;;;;;;8.50;7.03;;;;;;;20.63;52.81;97533.44;4989500;28;20219;-63
2021/11/13 08:27:06;;;;;;;11.00;7.63;;;;;;;20.54;51.68;97516.97;4972259;28;20250;-64
2021/11/13 08:29:32;;;;;;;9.67;8.23;;;;;;;20.59;50.26;97525.63;4969407;28;20199;-63
2021/11/13 08:31:59;;;;;;;9.20;8.23;;;;;;;20.47;49.93;97504.81;4988768;28;20294;-62
2021/11/13 08:34:25;;;;;;;11.57;9.93;;;;;;;20.56;49.32;97522.97;4972976;28;20749;-63
2021/11/13 08:36:52;;;;;;;13.53;10.80;;;;;;;20.56;48.45;97531.53;4977246;28;20303;-63
2021/11/13 08:39:19;;;;;;;14.10;11.23;;;;;;;20.55;48.23;97524.69;4993681;28;20227;-63
2021/11/13 08:41:46;;;;;;;13.83;11.33;;;;;;;20.53;47.56;97522.88;4993824;28;20194;-63
2021/11/13 08:44:13;;;;;;;14.87;12.80;;;;;;;20.52;47.15;97519.44;4993007;28;20218;-62
2021/11/13 08:46:39;;;;;;;14.73;13.17;;;;;;;20.51;46.90;97514.28;4989931;28;20250;-63
2021/11/13 08:49:06;;;;;;;15.77;13.13;;;;;;;20.49;47.03;97513.41;4992703;28;20230;-63
2021/11/13 08:51:33;;;;;;;14.13;12.63;;;;;;;20.41;47.48;97502.94;4992938;28;20744;-63
2021/11/13 08:54:00;;;;;;;16.60;12.17;;;;;;;20.50;48.51;97510.00;4990755;28;20266;-63
2021/11/13 08:56:27;;;;;;;13.53;12.13;;;;;;;20.22;49.27;97464.00;4992736;28;20361;-64
2021/11/13 08:58:55;;;;;;;12.70;11.07;;;;;;;20.49;49.72;97510.84;4991399;28;20626;-63
2021/11/13 09:01:23;;;;;;;12.97;11.47;;;;;;;20.48;50.36;97507.41;4975755;28;20245;-63
2021/11/13 09:03:49;;;;;;;12.03;10.73;;;;;;;20.48;50.77;97525.28;4993071;28;20229;-63
2021/11/13 09:06:19;;;;;;;11.90;10.30;;;;;;;20.48;51.28;97521.84;4975837;28;20780;-63
2021/11/13 09:08:46;;;;;;;13.13;11.20;;;;;;;20.45;51.48;97509.88;4992618;28;20227;-64
2021/11/13 09:11:20;;;;;;;10.77;9.67;;;;;;;20.32;51.82;97489.88;4976686;28;20198;-63
2021/11/13 09:13:47;;;;;;;12.43;10.13;;;;;;;20.38;52.24;97505.38;4977860;28;20297;-63
2021/11/13 09:16:14;;;;;;;11.23;9.87;;;;;;;20.46;52.19;97510.75;4974938;28;20638;-62
2021/11/13 09:18:42;;;;;;;12.23;10.40;;;;;;;20.49;52.58;97527.00;4992423;28;20302;-63
2021/11/13 09:21:11;;;;;;;12.43;10.77;;;;;;;20.50;52.77;97526.22;4986140;28;20286;-62
2021/11/13 09:23:38;;;;;;;10.77;9.20;;;;;;;20.51;53.32;97532.16;4992296;28;20273;-64
2021/11/13 09:26:06;;;;;;;11.10;9.57;;;;;;;20.51;53.36;97527.94;4991618;28;20278;-63
2021/11/13 09:28:34;;;;;;;10.13;8.80;;;;;;;20.53;53.36;97531.41;4991605;28;20622;-64
2021/11/13 09:31:01;;;;;;;12.03;9.67;;;;;;;20.30;53.49;97488.06;4991383;28;20257;-64
2021/11/13 09:33:28;;;;;;;13.10;9.40;;;;;;;20.53;53.34;97526.31;4973928;28;20917;-64
2021/11/13 09:35:55;;;;;;;9.70;8.60;;;;;;;20.50;53.07;97521.09;4990867;28;20624;-64
2021/11/13 09:38:24;;;;;;;9.50;8.50;;;;;;;20.54;53.17;97528.03;4992011;28;20243;-64
2021/11/13 09:40:53;;;;;;;11.27;8.87;;;;;;;20.46;52.78;97518.41;4975198;28;20207;-64
2021/11/13 09:43:22;;;;;;;12.07;9.20;;;;;;;20.55;52.90;97534.03;4974720;28;20285;-64
2021/11/13 09:45:48;;;;;;;10.20;8.90;;;;;;;20.56;52.99;97536.63;4991828;28;20628;-64
2021/11/13 09:48:16;;;;;;;9.60;8.60;;;;;;;20.55;53.09;97532.34;4991664;28;20206;-63
2021/11/13 09:50:46;;;;;;;10.90;8.70;;;;;;;20.47;53.14;97510.78;4970551;28;20222;-64
2021/11/13 09:53:12;;;;;;;10.63;8.20;;;;;;;20.48;53.40;97530.38;4972548;28;20235;-64
2021/11/13 09:55:39;;;;;;;9.43;8.43;;;;;;;20.56;53.41;97546.84;5086146;23;20254;-67
2021/11/13 09:58:06;;;;;;;11.43;8.50;;;;;;;20.57;53.44;97546.00;4957093;28;20215;-65
2021/11/13 10:00:35;;;;;;;9.27;8.20;;;;;;;20.56;53.59;97543.41;4974310;28;20214;-65
2021/11/13 10:03:03;;;;;;;8.80;7.90;;;;;;;20.56;53.82;97539.19;4972366;28;20530;-63
2021/11/13 10:05:30;;;;;;;9.17;8.20;;;;;;;20.52;53.84;97532.22;4973525;28;20575;-63
2021/11/13 10:07:56;;;;;;;8.50;7.60;;;;;;;20.57;53.81;97535.78;4971617;28;20277;-64
2021/11/13 10:10:41;;;;;;;8.50;7.67;;;;;;;20.58;53.89;97535.00;4973975;28;20673;-66
2021/11/13 10:13:30;;;;;;;10.20;8.07;;;;;;;20.58;53.99;97529.00;4958655;28;20211;-64
2021/11/13 10:16:01;;;;;;;9.87;7.57;;;;;;;20.58;53.95;97539.22;4974541;28;20254;-63
2021/11/13 10:18:30;;;;;;;9.97;8.33;;;;;;;20.55;53.00;97529.78;4991533;28;20270;-61
2021/11/13 10:20:56;;;;;;;11.27;10.17;;;;;;;20.58;51.36;97526.47;4958668;28;20199;-63
2021/11/13 10:23:26;;;;;;;12.33;9.73;;;;;;;20.57;51.80;97522.19;4988106;28;20195;-63
2021/11/13 10:26:21;;;;;;;13.17;8.80;;;;;;;20.57;51.95;97524.75;5005696;28;20219;-62
2021/11/13 10:28:51;;;;;;;17.17;9.37;;;;;;;20.57;51.90;97522.19;4989183;28;20226;-63
2021/11/13 10:31:38;;;;;;;14.00;8.93;;;;;;;20.56;52.32;97511.09;4980955;28;20230;-63
2021/11/13 10:34:07;;;;;;;15.73;8.37;;;;;;;20.57;52.63;97510.25;4988800;28;20229;-63
2021/11/13 10:36:42;;;;;;;11.03;8.77;;;;;;;20.53;52.62;97505.88;4986776;28;20253;-63
2021/11/13 10:39:13;;;;;;;15.43;8.23;;;;;;;20.57;52.77;97507.72;4990671;28;20245;-63
2021/11/13 10:41:45;;;;;;;15.77;8.60;;;;;;;20.57;52.88;97505.16;4990653;28;20195;-63
2021/11/13 10:44:12;;;;;;;9.73;8.73;;;;;;;20.54;52.90;97489.75;4988246;28;20256;-63
2021/11/13 10:46:44;;;;;;;10.67;8.07;;;;;;;20.59;52.91;97495.00;4990470;28;20195;-67
2021/11/13 10:49:11;;;;;;;8.50;7.57;;;;;;;20.52;53.02;97487.97;4984381;28;20199;-62
2021/11/13 10:51:38;;;;;;;10.20;7.87;;;;;;;20.56;53.02;97497.44;4974229;28;20856;-62
2021/11/13 10:54:13;;;;;;;8.20;7.40;;;;;;;20.60;53.05;97512.91;4989858;28;20214;-63
2021/11/13 10:57:06;;;;;;;10.83;7.63;;;;;;;20.61;52.86;97516.34;4989666;28;20198;-64
2021/11/13 10:59:37;;;;;;;9.53;8.07;;;;;;;20.60;52.99;97512.91;4970442;28;20207;-63
2021/11/13 11:02:05;;;;;;;8.20;7.40;;;;;;;20.60;52.76;97512.91;4973726;28;20199;-63
2021/11/13 11:04:33;;;;;;;7.97;7.00;;;;;;;20.55;53.15;97504.25;4989316;28;20281;-62
2021/11/13 11:07:05;;;;;;;8.63;7.53;;;;;;;20.62;53.21;97513.84;4957726;28;20636;-63
2021/11/13 11:09:54;;;;;;;9.20;7.33;;;;;;;20.62;53.35;97510.41;4990728;28;20207;-63
2021/11/13 11:12:21;;;;;;;9.30;8.10;;;;;;;20.54;53.16;97497.41;4973731;28;20234;-65
2021/11/13 11:14:50;;;;;;;8.07;7.20;;;;;;;20.62;53.76;97505.31;4973486;28;20277;-63
2021/11/13 11:17:19;;;;;;;7.77;6.97;;;;;;;20.62;53.50;97505.31;4973096;28;20688;-63
2021/11/13 11:19:51;;;;;;;9.30;7.07;;;;;;;20.63;53.71;97507.06;4990097;28;20570;-65
2021/11/13 11:22:20;;;;;;;8.17;7.13;;;;;;;20.64;53.65;97509.66;4958191;28;20261;-65
2021/11/13 11:24:59;;;;;;;8.70;6.43;;;;;;;20.64;53.52;97501.13;4989472;28;20265;-63
2021/11/13 11:27:27;;;;;;;7.70;6.63;;;;;;;20.63;53.39;97495.16;4988373;28;20203;-64
2021/11/13 11:29:55;;;;;;;8.03;6.90;;;;;;;20.63;53.48;97500.25;4971305;28;20211;-65
2021/11/13 11:32:36;;;;;;;8.50;6.37;;;;;;;20.63;53.39;97495.16;4987157;28;20212;-63
2021/11/13 11:35:08;;;;;;;8.50;7.00;;;;;;;20.65;53.50;97490.09;4972920;28;20289;-62